Charter Quote
Worldwide +1-877-727-2538 Call
Select Language Lang
SAFETY RELIABILITY EXPERIENCE

Private Jet Charter Services - Zhoushan Airport (ZSZS)

Paramount Business Jets offers private jet charter flights and luxury airliner charters to and from Zhoushan Airport.

AIRPORT INFORMATION
ICAOZSZS
LOCATIONZhoushan, China
FACILITY TYPEAIRPORT

At Paramount Business Jets you can hire chartered private jets to and from Zhoushan Airport with as little as 4 hours of notice. All flights booked via Paramount Business Jets are operated by certified direct air carriers that meet and exceed the FAA part 135 and 121 protocol or a foreign equivalent safety authority. Furthermore, Paramount Business Jets subscribes to ARGUS for their third party safety checks of operators, aircraft, and crews prior each and every flight to and from Zhoushan Airport and worldwide.

  • Quote a trip using Zhoushan Airport or call us 24/7 - 365 days a year at +1-877-727-2538.
Questions? Call +1-877-727-2538

METAR Weather Data at Zhoushan Airport, ZSZS

STATIONZSZS
OBSERVEDTue Aug 26, 03:00 UTC
NOWMon Oct 21, 20:31 UTC
AGE45185:31 hr ago
WINDNE at 7 mph
VISIBILITY8 miles
CONDITIONSmist
METARZSZS 260300Z 05003MPS 010V090 5000 BR NSC 27/23 Q1014 NOSIG

Call us on +1-877-727-2538 (24 Hours) to Hire a Private Jet or Get a Quick Quote.

Find Airports Near any Location

Processing
...